createdAt,value
2023-01-29T00:00:30.712Z,98.77
2023-01-29T00:01:30.724Z,98.66
2023-01-29T00:02:30.813Z,98.56
2023-01-29T00:03:30.692Z,98.56
2023-01-29T00:04:31.689Z,98.66
2023-01-29T00:05:31.677Z,98.66
2023-01-29T00:06:30.754Z,98.77
2023-01-29T00:07:30.667Z,98.77
2023-01-29T00:08:30.680Z,98.83
2023-01-29T00:09:30.672Z,98.72
2023-01-29T00:10:30.667Z,98.62
2023-01-29T00:11:30.768Z,98.52
2023-01-29T00:12:30.668Z,98.20
2023-01-29T00:13:30.630Z,97.88
2023-01-29T00:14:30.636Z,97.41
2023-01-29T00:15:30.618Z,97.30
2023-01-29T00:16:30.616Z,97.51
2023-01-29T00:17:30.602Z,97.61
2023-01-29T00:18:30.604Z,97.66
2023-01-29T00:19:30.594Z,98.18
2023-01-29T00:20:31.134Z,98.60
2023-01-29T00:21:31.165Z,98.92
2023-01-29T00:22:30.574Z,99.24
2023-01-29T00:23:30.583Z,99.44
2023-01-29T00:24:30.617Z,99.55
2023-01-29T00:25:30.564Z,99.72
2023-01-29T00:26:30.548Z,99.82
2023-01-29T00:27:30.543Z,99.82
2023-01-29T00:28:30.533Z,99.72
2023-01-29T00:29:30.529Z,99.40
2023-01-29T00:30:30.531Z,99.08
2023-01-29T00:31:30.616Z,98.83
2023-01-29T00:32:30.515Z,98.62
2023-01-29T00:33:30.500Z,98.41
2023-01-29T00:34:30.503Z,98.30
2023-01-29T00:35:30.522Z,98.24
2023-01-29T00:36:30.489Z,98.03
2023-01-29T00:37:30.632Z,98.24
2023-01-29T00:38:30.477Z,98.46
2023-01-29T00:39:46.030Z,98.56
2023-01-29T00:40:30.657Z,98.62
2023-01-29T00:41:30.447Z,98.52
2023-01-29T00:42:30.455Z,98.30
2023-01-29T00:43:30.441Z,98.10
2023-01-29T00:44:30.446Z,97.88
2023-01-29T00:45:30.435Z,97.63
2023-01-29T00:46:30.472Z,97.42
2023-01-29T00:47:30.433Z,97.21
2023-01-29T00:48:30.419Z,96.89
2023-01-29T00:49:30.462Z,96.69
2023-01-29T00:50:30.423Z,96.58
2023-01-29T00:51:30.415Z,96.47
2023-01-29T00:52:30.408Z,96.47
2023-01-29T00:53:30.375Z,96.58
2023-01-29T00:54:32.383Z,96.62
2023-01-29T00:55:30.420Z,96.62
2023-01-29T00:56:30.373Z,96.83
2023-01-29T00:57:30.367Z,96.94
2023-01-29T00:58:30.351Z,96.89
2023-01-29T00:59:30.357Z,96.89
2023-01-29T01:00:30.460Z,96.79
2023-01-29T01:01:30.334Z,96.69
2023-01-29T01:02:30.333Z,96.62
2023-01-29T01:03:30.319Z,96.62
2023-01-29T01:04:30.321Z,96.73
2023-01-29T01:05:30.413Z,96.83
2023-01-29T01:06:30.312Z,96.94
2023-01-29T01:07:30.307Z,96.94
2023-01-29T01:08:30.323Z,96.69
2023-01-29T01:09:30.287Z,96.37
2023-01-29T01:10:30.303Z,96.16
2023-01-29T01:11:30.277Z,96.05
2023-01-29T01:12:30.368Z,96.05
2023-01-29T01:13:30.255Z,96.16
2023-01-29T01:14:30.264Z,96.26
2023-01-29T01:15:30.265Z,96.20
2023-01-29T01:16:30.289Z,96.20
2023-01-29T01:17:30.239Z,96.31
2023-01-29T01:18:30.245Z,96.41
2023-01-29T01:19:30.232Z,96.37
2023-01-29T01:20:30.375Z,96.26
2023-01-29T01:21:30.231Z,96.16
2023-01-29T01:22:30.245Z,96.16
2023-01-29T01:23:30.218Z,96.05
2023-01-29T01:24:30.332Z,95.95
2023-01-29T01:25:30.202Z,95.84
2023-01-29T01:26:30.186Z,95.74
2023-01-29T01:27:30.191Z,95.64
2023-01-29T01:28:30.171Z,95.74
2023-01-29T01:29:30.164Z,95.74
2023-01-29T01:30:30.201Z,95.74
2023-01-29T01:31:30.195Z,95.84
2023-01-29T01:32:30.146Z,95.89
2023-01-29T01:33:30.140Z,95.89
2023-01-29T01:34:30.141Z,95.89
2023-01-29T01:35:30.150Z,95.78
2023-01-29T01:36:30.131Z,95.93
2023-01-29T01:37:30.131Z,96.35
2023-01-29T01:38:30.148Z,96.67
2023-01-29T01:39:30.116Z,96.98
2023-01-29T01:40:30.117Z,97.41
2023-01-29T01:41:30.086Z,97.72
2023-01-29T01:42:30.091Z,97.82
2023-01-29T01:43:30.171Z,97.82
2023-01-29T01:44:30.077Z,97.72
2023-01-29T01:45:30.174Z,97.51
2023-01-29T01:46:30.066Z,97.41
2023-01-29T01:47:30.069Z,97.51
2023-01-29T01:48:30.053Z,97.41
2023-01-29T01:49:30.053Z,97.41
2023-01-29T01:50:30.064Z,97.41
2023-01-29T01:51:30.033Z,97.51
2023-01-29T01:52:30.033Z,97.61
2023-01-29T01:53:30.012Z,97.72
2023-01-29T01:54:30.063Z,97.82
2023-01-29T01:55:30.048Z,97.93
2023-01-29T01:56:30.022Z,98.03
2023-01-29T01:57:30.692Z,98.14
2023-01-29T01:58:30.959Z,97.93
2023-01-29T01:59:30.080Z,97.93
2023-01-29T02:00:30.088Z,97.82
2023-01-29T02:01:30.116Z,97.61
2023-01-29T02:02:30.109Z,97.47
2023-01-29T02:03:30.155Z,97.36
2023-01-29T02:04:30.186Z,97.25
2023-01-29T02:05:30.200Z,97.25
2023-01-29T02:06:30.340Z,97.15
2023-01-29T02:07:30.336Z,97.15
2023-01-29T02:08:30.353Z,97.15
2023-01-29T02:09:30.148Z,97.05
2023-01-29T02:10:29.968Z,96.83
2023-01-29T02:11:30.581Z,96.62
2023-01-29T02:12:30.575Z,96.37
2023-01-29T02:13:30.245Z,96.16
2023-01-29T02:14:30.670Z,96.05
2023-01-29T02:15:30.394Z,95.95
2023-01-29T02:16:30.844Z,95.84
2023-01-29T02:17:30.844Z,95.84
2023-01-29T02:18:30.855Z,95.84
2023-01-29T02:19:29.879Z,95.84
2023-01-29T02:20:29.888Z,95.84
2023-01-29T02:21:29.893Z,95.95
2023-01-29T02:22:29.872Z,95.95
2023-01-29T02:23:29.872Z,95.95
2023-01-29T02:24:30.098Z,95.95
2023-01-29T02:25:30.680Z,95.95
2023-01-29T02:26:30.135Z,95.99
2023-01-29T02:27:29.831Z,96.10
2023-01-29T02:28:30.651Z,96.31
2023-01-29T02:29:30.817Z,96.51
2023-01-29T02:30:29.832Z,96.62
2023-01-29T02:31:30.728Z,96.73
2023-01-29T02:32:30.740Z,96.73
2023-01-29T02:33:29.789Z,96.47
2023-01-29T02:34:29.788Z,96.41
2023-01-29T02:35:29.839Z,96.16
2023-01-29T02:36:29.788Z,96.05
2023-01-29T02:37:29.787Z,96.05
2023-01-29T02:38:29.936Z,96.16
2023-01-29T02:39:29.955Z,96.16
2023-01-29T02:40:29.956Z,96.26
2023-01-29T02:41:29.755Z,96.26
2023-01-29T02:42:30.028Z,96.26
2023-01-29T02:43:30.174Z,96.26
2023-01-29T02:44:29.851Z,96.16
2023-01-29T02:45:30.193Z,96.16
2023-01-29T02:46:30.202Z,96.05
2023-01-29T02:47:30.265Z,95.95
2023-01-29T02:48:30.014Z,95.95
2023-01-29T02:49:29.819Z,96.05
2023-01-29T02:50:29.832Z,96.10
2023-01-29T02:51:30.451Z,96.26
2023-01-29T02:52:29.851Z,96.41
2023-01-29T02:53:29.683Z,96.47
2023-01-29T02:54:29.668Z,96.47
2023-01-29T02:55:30.111Z,96.37
2023-01-29T02:56:30.088Z,96.16
2023-01-29T02:57:30.107Z,96.16
2023-01-29T02:58:30.094Z,96.05
2023-01-29T02:59:30.127Z,96.05
2023-01-29T03:00:30.145Z,96.05
2023-01-29T03:01:29.759Z,96.05
2023-01-29T03:02:30.013Z,96.05
2023-01-29T03:03:30.139Z,96.16
2023-01-29T03:04:30.127Z,96.05
2023-01-29T03:05:29.803Z,95.95
2023-01-29T03:06:29.598Z,95.95
2023-01-29T03:07:29.577Z,95.95
2023-01-29T03:08:30.606Z,95.74
2023-01-29T03:09:30.176Z,95.64
2023-01-29T03:10:29.755Z,95.53
2023-01-29T03:11:29.605Z,95.64
2023-01-29T03:12:29.569Z,95.64
2023-01-29T03:13:29.568Z,95.70
2023-01-29T03:14:29.574Z,95.84
2023-01-29T03:15:29.631Z,95.84
2023-01-29T03:16:29.542Z,95.95
2023-01-29T03:17:29.818Z,95.95
2023-01-29T03:18:29.814Z,96.05
2023-01-29T03:19:29.502Z,96.12
2023-01-29T03:20:29.542Z,96.05
2023-01-29T03:21:29.494Z,96.05
2023-01-29T03:22:29.841Z,96.16
2023-01-29T03:23:30.050Z,96.16
2023-01-29T03:24:29.490Z,96.16
2023-01-29T03:25:29.477Z,96.05
2023-01-29T03:26:29.605Z,96.05
2023-01-29T03:27:29.470Z,96.16
2023-01-29T03:28:29.609Z,96.26
2023-01-29T03:29:29.437Z,96.47
2023-01-29T03:30:29.431Z,96.37
2023-01-29T03:31:29.573Z,96.26
2023-01-29T03:32:29.429Z,96.16
2023-01-29T03:33:29.516Z,96.05
2023-01-29T03:34:29.407Z,95.95
2023-01-29T03:35:29.396Z,95.95
2023-01-29T03:36:29.417Z,95.95
2023-01-29T03:37:29.389Z,95.84
2023-01-29T03:38:29.385Z,95.95
2023-01-29T03:39:29.410Z,95.84
2023-01-29T03:40:29.364Z,95.74
2023-01-29T03:41:29.391Z,95.74
2023-01-29T03:42:29.364Z,95.70
2023-01-29T03:43:29.572Z,95.48
2023-01-29T03:44:29.353Z,95.38
2023-01-29T03:45:29.419Z,95.28
2023-01-29T03:46:29.359Z,95.48
2023-01-29T03:47:29.603Z,95.48
2023-01-29T03:48:29.325Z,95.70
2023-01-29T03:49:29.312Z,95.70
2023-01-29T03:50:29.311Z,95.70
2023-01-29T03:51:29.370Z,95.59
2023-01-29T03:52:29.299Z,95.59
2023-01-29T03:53:29.307Z,95.59
2023-01-29T03:54:29.692Z,95.59
2023-01-29T03:55:29.299Z,95.48
2023-01-29T03:56:29.289Z,95.48
2023-01-29T03:57:29.274Z,95.48
2023-01-29T03:58:29.290Z,95.44
2023-01-29T03:59:29.267Z,95.38
2023-01-29T04:00:29.809Z,95.13
2023-01-29T04:01:29.307Z,95.13
2023-01-29T04:02:29.247Z,95.02
2023-01-29T04:03:29.255Z,95.02
2023-01-29T04:04:29.355Z,95.02
2023-01-29T04:05:29.225Z,94.92
2023-01-29T04:06:29.225Z,94.92
2023-01-29T04:07:29.212Z,94.92
2023-01-29T04:08:29.200Z,94.81
2023-01-29T04:09:29.202Z,94.67
2023-01-29T04:10:29.186Z,94.67
2023-01-29T04:11:29.413Z,94.67
2023-01-29T04:12:29.182Z,94.71
2023-01-29T04:13:29.191Z,94.77
2023-01-29T04:14:29.184Z,94.92
2023-01-29T04:15:29.160Z,95.02
2023-01-29T04:16:29.718Z,95.02
2023-01-29T04:17:29.149Z,95.13
2023-01-29T04:18:29.142Z,95.23
2023-01-29T04:19:29.132Z,95.29
2023-01-29T04:20:29.203Z,94.98
2023-01-29T04:21:29.133Z,94.77
2023-01-29T04:22:29.131Z,94.56
2023-01-29T04:23:29.130Z,94.24
2023-01-29T04:24:29.913Z,94.04
2023-01-29T04:25:29.169Z,94.04
2023-01-29T04:26:29.119Z,93.82
2023-01-29T04:27:29.086Z,93.57
2023-01-29T04:28:29.093Z,93.57
2023-01-29T04:29:30.130Z,93.68
2023-01-29T04:30:29.078Z,93.78
2023-01-29T04:31:29.248Z,93.57
2023-01-29T04:32:29.076Z,93.47
2023-01-29T04:33:29.069Z,93.36
2023-01-29T04:34:29.044Z,93.36
2023-01-29T04:35:29.098Z,93.47
2023-01-29T04:36:29.066Z,93.36
2023-01-29T04:37:29.116Z,93.47
2023-01-29T04:38:29.838Z,93.36
2023-01-29T04:39:29.181Z,93.26
2023-01-29T04:40:29.014Z,93.15
2023-01-29T04:41:29.015Z,93.05
2023-01-29T04:42:29.001Z,93.15
2023-01-29T04:43:28.985Z,93.36
2023-01-29T04:44:28.979Z,93.47
2023-01-29T04:45:28.990Z,93.36
2023-01-29T04:46:28.989Z,93.26
2023-01-29T04:47:28.995Z,93.15
2023-01-29T04:48:28.963Z,93.15
2023-01-29T04:49:28.949Z,93.15
2023-01-29T04:50:28.980Z,93.26
2023-01-29T04:51:28.957Z,93.36
2023-01-29T04:52:28.937Z,93.36
2023-01-29T04:53:28.942Z,93.36
2023-01-29T04:54:28.928Z,93.47
2023-01-29T04:55:29.023Z,93.47
2023-01-29T04:56:28.917Z,93.47
2023-01-29T04:57:28.917Z,93.26
2023-01-29T04:58:28.897Z,93.15
2023-01-29T04:59:28.893Z,93.15
2023-01-29T05:00:29.088Z,93.11
2023-01-29T05:01:28.911Z,93.01
2023-01-29T05:02:28.885Z,92.90
2023-01-29T05:03:28.877Z,93.01
2023-01-29T05:04:28.864Z,93.01
2023-01-29T05:05:28.848Z,93.01
2023-01-29T05:06:28.948Z,93.01
2023-01-29T05:07:28.881Z,93.11
2023-01-29T05:08:28.841Z,93.01
2023-01-29T05:09:28.823Z,93.11
2023-01-29T05:10:28.835Z,93.11
2023-01-29T05:11:28.831Z,93.11
2023-01-29T05:12:28.809Z,93.11
2023-01-29T05:13:28.804Z,93.11
2023-01-29T05:14:28.799Z,93.11
2023-01-29T05:15:28.790Z,93.11
2023-01-29T05:16:28.846Z,93.21
2023-01-29T05:17:28.899Z,93.11
2023-01-29T05:18:29.238Z,92.90
2023-01-29T05:19:29.441Z,92.90
2023-01-29T05:20:28.755Z,92.80
2023-01-29T05:21:28.766Z,92.69
2023-01-29T05:22:28.745Z,92.58
2023-01-29T05:23:28.737Z,92.48
2023-01-29T05:24:28.767Z,92.38
2023-01-29T05:25:28.776Z,92.33
2023-01-29T05:26:28.738Z,92.27
2023-01-29T05:27:28.750Z,92.38
2023-01-29T05:28:28.708Z,92.27
2023-01-29T05:29:28.695Z,91.96
2023-01-29T05:30:28.695Z,92.06
2023-01-29T05:31:28.811Z,91.96
2023-01-29T05:32:28.682Z,92.06
2023-01-29T05:33:28.680Z,92.16
2023-01-29T05:34:28.670Z,92.27
2023-01-29T05:35:28.669Z,92.06
2023-01-29T05:36:28.726Z,92.06
2023-01-29T05:37:28.755Z,92.16
2023-01-29T05:38:28.832Z,92.38
2023-01-29T05:39:28.647Z,92.33
2023-01-29T05:40:28.681Z,92.23
2023-01-29T05:41:28.702Z,92.16
2023-01-29T05:42:28.762Z,92.02
2023-01-29T05:43:28.897Z,92.23
2023-01-29T05:44:28.723Z,92.44
2023-01-29T05:45:28.610Z,92.44
2023-01-29T05:46:28.652Z,92.44
2023-01-29T05:47:29.018Z,92.54
2023-01-29T05:48:29.097Z,92.54
2023-01-29T05:49:28.877Z,92.76
2023-01-29T05:50:29.019Z,92.86
2023-01-29T05:51:28.628Z,92.86
2023-01-29T05:52:28.560Z,92.96
2023-01-29T05:53:28.549Z,92.86
2023-01-29T05:54:29.083Z,92.71
2023-01-29T05:55:28.710Z,92.76
2023-01-29T05:56:28.569Z,92.65
2023-01-29T05:57:29.138Z,92.40
2023-01-29T05:58:28.525Z,92.19
2023-01-29T05:59:28.507Z,92.29
2023-01-29T06:00:29.088Z,92.29
2023-01-29T06:01:29.142Z,92.19
2023-01-29T06:02:28.889Z,92.40
2023-01-29T06:03:28.485Z,92.71
2023-01-29T06:04:28.493Z,92.82
2023-01-29T06:05:28.475Z,93.02
2023-01-29T06:06:28.522Z,92.82
2023-01-29T06:07:28.592Z,92.71
2023-01-29T06:08:28.523Z,92.82
2023-01-29T06:09:28.511Z,92.92
2023-01-29T06:10:28.743Z,92.82
2023-01-29T06:11:28.750Z,92.82
2023-01-29T06:12:28.440Z,93.02
2023-01-29T06:13:28.769Z,93.24
2023-01-29T06:14:28.562Z,93.55
2023-01-29T06:15:28.420Z,93.55
2023-01-29T06:16:28.623Z,93.55
2023-01-29T06:17:28.444Z,93.44
2023-01-29T06:18:28.410Z,93.44
2023-01-29T06:19:28.423Z,93.34
2023-01-29T06:20:29.858Z,93.13
2023-01-29T06:21:28.817Z,93.13
2023-01-29T06:22:28.837Z,93.13
2023-01-29T06:23:28.828Z,92.82
2023-01-29T06:24:28.494Z,92.82
2023-01-29T06:25:28.387Z,92.71
2023-01-29T06:26:28.872Z,92.71
2023-01-29T06:27:28.521Z,92.61
2023-01-29T06:28:29.075Z,92.61
2023-01-29T06:29:28.667Z,92.82
2023-01-29T06:30:29.097Z,92.82
2023-01-29T06:31:38.170Z,92.82
2023-01-29T06:32:28.897Z,92.71
2023-01-29T06:33:29.472Z,92.46
2023-01-29T06:34:28.356Z,92.46
2023-01-29T06:35:28.305Z,92.57
2023-01-29T06:36:28.325Z,92.88
2023-01-29T06:37:29.273Z,92.57
2023-01-29T06:38:29.136Z,92.46
2023-01-29T06:39:28.932Z,92.46
2023-01-29T06:40:28.953Z,92.46
2023-01-29T06:41:28.273Z,92.57
2023-01-29T06:42:28.294Z,92.57
2023-01-29T06:43:28.544Z,92.57
2023-01-29T06:44:28.761Z,92.57
2023-01-29T06:45:28.403Z,92.77
2023-01-29T06:46:28.792Z,92.67
2023-01-29T06:47:28.809Z,92.88
2023-01-29T06:48:28.410Z,93.19
2023-01-29T06:49:28.268Z,93.40
2023-01-29T06:50:28.253Z,93.08
2023-01-29T06:51:28.250Z,92.98
2023-01-29T06:52:28.260Z,92.98
2023-01-29T06:53:28.227Z,92.88
2023-01-29T06:54:28.450Z,93.08
2023-01-29T06:55:28.489Z,93.40
2023-01-29T06:56:28.482Z,93.61
2023-01-29T06:57:28.451Z,93.71
2023-01-29T06:58:28.476Z,93.51
2023-01-29T06:59:28.666Z,93.08
2023-01-29T07:00:30.623Z,92.98
2023-01-29T07:01:36.236Z,92.98
2023-01-29T07:02:28.761Z,93.08
2023-01-29T07:03:28.505Z,93.19
2023-01-29T07:04:28.153Z,93.30
2023-01-29T07:05:28.901Z,93.19
2023-01-29T07:06:28.142Z,93.19
2023-01-29T07:07:28.303Z,93.08
2023-01-29T07:08:28.147Z,92.98
2023-01-29T07:09:28.392Z,92.77
2023-01-29T07:10:28.540Z,92.88
2023-01-29T07:11:28.737Z,93.08
2023-01-29T07:12:28.143Z,93.08
2023-01-29T07:13:28.087Z,93.08
2023-01-29T07:14:28.784Z,93.08
2023-01-29T07:15:28.390Z,93.30
2023-01-29T07:16:28.322Z,93.19
2023-01-29T07:17:28.570Z,93.08
2023-01-29T07:18:28.376Z,93.19
2023-01-29T07:19:28.031Z,93.40
2023-01-29T07:20:28.191Z,93.30
2023-01-29T07:21:28.428Z,93.19
2023-01-29T07:22:28.041Z,93.26
2023-01-29T07:23:28.448Z,93.15
2023-01-29T07:24:28.878Z,93.04
2023-01-29T07:25:28.013Z,93.04
2023-01-29T07:26:28.846Z,92.94
2023-01-29T07:27:28.027Z,92.83
2023-01-29T07:28:28.037Z,92.94
2023-01-29T07:29:28.050Z,92.94
2023-01-29T07:30:28.143Z,92.94
2023-01-29T07:31:28.130Z,93.04
2023-01-29T07:32:28.264Z,92.94
2023-01-29T07:33:27.947Z,92.94
2023-01-29T07:34:28.085Z,92.73
2023-01-29T07:35:28.083Z,92.69
2023-01-29T07:36:27.952Z,92.63
2023-01-29T07:37:28.091Z,92.73
2023-01-29T07:38:28.332Z,92.83
2023-01-29T07:39:27.918Z,92.73
2023-01-29T07:40:28.196Z,92.48
2023-01-29T07:41:27.912Z,92.38
2023-01-29T07:42:27.972Z,91.96
2023-01-29T07:43:27.967Z,91.64
2023-01-29T07:44:27.972Z,91.75
2023-01-29T07:45:28.610Z,91.64
2023-01-29T07:46:28.570Z,91.54
2023-01-29T07:47:27.988Z,91.22
2023-01-29T07:48:27.863Z,91.12
2023-01-29T07:49:27.885Z,91.12
2023-01-29T07:50:27.895Z,91.02
2023-01-29T07:51:27.893Z,90.97
2023-01-29T07:52:27.897Z,91.28
2023-01-29T07:53:27.912Z,91.39
2023-01-29T07:54:27.918Z,91.50
2023-01-29T07:55:27.939Z,91.50
2023-01-29T07:56:27.830Z,91.50
2023-01-29T07:57:27.963Z,91.39
2023-01-29T07:58:27.985Z,91.39
2023-01-29T07:59:27.986Z,91.08
2023-01-29T08:00:28.038Z,90.97
2023-01-29T08:01:27.779Z,90.77
2023-01-29T08:02:28.089Z,90.66
2023-01-29T08:03:28.047Z,90.83
2023-01-29T08:04:27.733Z,90.93
2023-01-29T08:05:27.764Z,90.62
2023-01-29T08:06:27.734Z,90.52
2023-01-29T08:07:27.884Z,90.41
2023-01-29T08:08:27.712Z,90.41
2023-01-29T08:09:27.704Z,90.52
2023-01-29T08:10:27.778Z,90.72
2023-01-29T08:11:27.720Z,90.83
2023-01-29T08:12:27.731Z,90.93
2023-01-29T08:13:27.688Z,90.93
2023-01-29T08:14:27.670Z,91.03
2023-01-29T08:15:27.820Z,91.25
2023-01-29T08:16:27.785Z,90.72
2023-01-29T08:17:27.683Z,90.52
2023-01-29T08:18:27.803Z,90.41
2023-01-29T08:19:27.809Z,90.47
2023-01-29T08:20:27.684Z,90.37
2023-01-29T08:21:27.646Z,90.16
2023-01-29T08:22:27.630Z,90.16
2023-01-29T08:23:27.633Z,90.16
2023-01-29T08:24:36.058Z,90.16
2023-01-29T08:25:28.007Z,90.26
2023-01-29T08:26:27.653Z,90.16
2023-01-29T08:27:27.843Z,90.26
2023-01-29T08:28:27.831Z,90.06
2023-01-29T08:29:27.617Z,90.16
2023-01-29T08:30:27.592Z,90.37
2023-01-29T08:31:27.913Z,90.37
2023-01-29T08:32:27.625Z,90.37
2023-01-29T08:33:38.959Z,90.47
2023-01-29T08:34:27.644Z,90.06
2023-01-29T08:35:27.854Z,89.74
2023-01-29T08:36:27.865Z,89.64
2023-01-29T08:37:27.739Z,89.74
2023-01-29T08:38:27.872Z,89.84
2023-01-29T08:39:27.604Z,89.64
2023-01-29T08:40:27.637Z,89.74
2023-01-29T08:41:27.524Z,89.53
2023-01-29T08:42:27.752Z,89.53
2023-01-29T08:43:27.701Z,89.74
2023-01-29T08:44:27.481Z,89.64
2023-01-29T08:45:27.785Z,89.53
2023-01-29T08:46:27.802Z,89.53
2023-01-29T08:47:29.410Z,89.43
2023-01-29T08:48:27.460Z,89.53
2023-01-29T08:49:27.561Z,89.53
2023-01-29T08:50:28.491Z,89.53
2023-01-29T08:51:27.591Z,89.53
2023-01-29T08:52:27.978Z,89.49
2023-01-29T08:53:28.038Z,89.53
2023-01-29T08:54:27.465Z,89.59
2023-01-29T08:55:27.786Z,89.39
2023-01-29T08:56:27.620Z,89.07
2023-01-29T08:57:28.216Z,88.76
2023-01-29T08:58:28.217Z,88.65
2023-01-29T08:59:27.470Z,88.87
2023-01-29T09:00:28.236Z,88.87
2023-01-29T09:01:27.693Z,88.72
2023-01-29T09:02:27.451Z,88.51
2023-01-29T09:03:28.936Z,88.41
2023-01-29T09:04:27.635Z,88.20
2023-01-29T09:05:28.285Z,88.20
2023-01-29T09:06:27.516Z,88.20
2023-01-29T09:07:27.735Z,88.41
2023-01-29T09:08:27.335Z,88.20
2023-01-29T09:09:27.361Z,87.84
2023-01-29T09:10:27.716Z,87.84
2023-01-29T09:11:27.654Z,88.06
2023-01-29T09:12:27.356Z,87.95
2023-01-29T09:13:27.311Z,87.84
2023-01-29T09:14:27.311Z,87.74
2023-01-29T09:15:27.316Z,87.84
2023-01-29T09:16:27.337Z,87.84
2023-01-29T09:17:27.320Z,87.74
2023-01-29T09:18:27.329Z,87.84
2023-01-29T09:19:27.329Z,87.84
2023-01-29T09:20:27.330Z,87.84
2023-01-29T09:21:27.431Z,87.95
2023-01-29T09:22:27.433Z,87.95
2023-01-29T09:23:27.434Z,88.37
2023-01-29T09:24:27.441Z,88.26
2023-01-29T09:25:27.453Z,88.16
2023-01-29T09:26:27.535Z,88.26
2023-01-29T09:27:27.457Z,88.16
2023-01-29T09:28:27.457Z,88.26
2023-01-29T09:29:27.216Z,88.57
2023-01-29T09:30:27.477Z,88.47
2023-01-29T09:31:27.610Z,88.06
2023-01-29T09:32:52.032Z,88.26
2023-01-29T09:33:27.503Z,88.16
2023-01-29T09:34:27.635Z,87.84
2023-01-29T09:35:27.666Z,87.63
2023-01-29T09:36:27.443Z,87.53
2023-01-29T09:37:27.245Z,87.49
2023-01-29T09:38:27.265Z,87.60
2023-01-29T09:39:27.665Z,87.39
2023-01-29T09:40:27.718Z,87.18
2023-01-29T09:41:27.686Z,86.97
2023-01-29T09:42:27.144Z,86.87
2023-01-29T09:43:27.695Z,86.83
2023-01-29T09:44:27.110Z,86.66
2023-01-29T09:45:27.136Z,86.66
2023-01-29T09:46:27.110Z,86.51
2023-01-29T09:47:27.129Z,85.89
2023-01-29T09:48:27.723Z,85.26
2023-01-29T09:49:27.207Z,85.47
2023-01-29T09:50:27.754Z,85.43
2023-01-29T09:51:27.419Z,85.85
2023-01-29T09:52:27.081Z,85.64
2023-01-29T09:53:27.064Z,85.74
2023-01-29T09:54:27.048Z,85.43
2023-01-29T09:55:27.169Z,85.19
2023-01-29T09:56:27.158Z,84.66
2023-01-29T09:57:27.182Z,84.66
2023-01-29T09:58:27.181Z,84.77
2023-01-29T09:59:27.188Z,83.83
2023-01-29T10:00:27.198Z,83.73
2023-01-29T10:01:27.297Z,84.14
2023-01-29T10:02:27.257Z,84.14
2023-01-29T10:03:27.030Z,84.25
2023-01-29T10:04:27.043Z,84.14
2023-01-29T10:05:27.227Z,84.25
2023-01-29T10:06:27.027Z,84.91
2023-01-29T10:07:27.046Z,84.91
2023-01-29T10:08:26.981Z,85.02
2023-01-29T10:09:27.271Z,84.81
2023-01-29T10:10:27.268Z,85.16
2023-01-29T10:11:26.972Z,85.22
2023-01-29T10:12:26.938Z,85.36
2023-01-29T10:13:26.984Z,85.64
2023-01-29T10:14:27.377Z,85.43
2023-01-29T10:15:27.395Z,85.64
2023-01-29T10:16:27.407Z,85.43
2023-01-29T10:17:26.904Z,85.22
2023-01-29T10:18:27.419Z,84.50
2023-01-29T10:19:26.914Z,84.39
2023-01-29T10:20:26.878Z,84.60
2023-01-29T10:21:27.109Z,84.60
2023-01-29T10:22:26.941Z,84.28
2023-01-29T10:23:27.460Z,84.45
2023-01-29T10:24:27.509Z,84.66
2023-01-29T10:25:27.264Z,84.45
2023-01-29T10:26:27.145Z,84.14
2023-01-29T10:27:27.480Z,84.45
2023-01-29T10:28:27.484Z,84.21
2023-01-29T10:29:26.895Z,84.11
2023-01-29T10:30:26.882Z,83.80
2023-01-29T10:31:26.889Z,83.96
2023-01-29T10:32:26.829Z,83.54
2023-01-29T10:33:26.899Z,83.54
2023-01-29T10:34:27.027Z,82.46
2023-01-29T10:35:27.020Z,82.15
2023-01-29T10:36:27.026Z,82.89
2023-01-29T10:37:27.131Z,83.09
2023-01-29T10:38:27.137Z,83.51
2023-01-29T10:39:27.259Z,82.46
2023-01-29T10:40:27.174Z,82.15
2023-01-29T10:41:26.947Z,81.95
2023-01-29T10:42:27.278Z,82.36
2023-01-29T10:43:27.380Z,82.15
2023-01-29T10:44:27.376Z,81.95
2023-01-29T10:45:27.508Z,82.78
2023-01-29T10:46:26.776Z,82.46
2023-01-29T10:47:29.272Z,82.12
2023-01-29T10:48:27.007Z,81.49
2023-01-29T10:49:27.214Z,81.49
2023-01-29T10:50:26.718Z,81.60
2023-01-29T10:51:26.985Z,81.18
2023-01-29T10:52:27.233Z,81.08
2023-01-29T10:53:26.947Z,80.80
2023-01-29T10:54:27.453Z,81.32
2023-01-29T10:55:26.742Z,81.39
2023-01-29T10:56:26.703Z,81.43
2023-01-29T10:57:26.671Z,81.43
2023-01-29T10:58:26.674Z,81.22
2023-01-29T10:59:26.632Z,81.74
2023-01-29T11:00:26.674Z,81.63
2023-01-29T11:01:26.890Z,81.77
2023-01-29T11:02:26.654Z,82.09
2023-01-29T11:03:29.097Z,82.20
2023-01-29T11:04:27.309Z,82.40
2023-01-29T11:05:27.014Z,82.92
2023-01-29T11:06:27.129Z,83.34
2023-01-29T11:07:26.610Z,82.82
2023-01-29T11:08:26.629Z,82.71
2023-01-29T11:09:26.642Z,82.82
2023-01-29T11:10:26.633Z,82.82
2023-01-29T11:11:26.748Z,82.71
2023-01-29T11:12:26.809Z,83.06
2023-01-29T11:13:26.767Z,83.27
2023-01-29T11:14:26.775Z,83.23
2023-01-29T11:15:26.793Z,83.13
2023-01-29T11:16:26.878Z,82.82
2023-01-29T11:17:26.599Z,82.86
2023-01-29T11:18:26.797Z,83.03
2023-01-29T11:19:27.016Z,83.34
2023-01-29T11:20:26.534Z,83.37
2023-01-29T11:21:26.920Z,83.65
2023-01-29T11:22:27.134Z,83.86
2023-01-29T11:23:26.642Z,83.86
2023-01-29T11:24:26.637Z,83.65
2023-01-29T11:25:26.939Z,82.71
2023-01-29T11:26:26.488Z,82.99
2023-01-29T11:27:26.524Z,82.57
2023-01-29T11:28:26.453Z,82.57
2023-01-29T11:29:26.675Z,82.78
2023-01-29T11:30:26.476Z,82.36
2023-01-29T11:31:27.338Z,82.46
2023-01-29T11:32:26.909Z,82.68
2023-01-29T11:33:27.192Z,82.78
2023-01-29T11:34:26.422Z,82.71
2023-01-29T11:35:27.225Z,82.71
2023-01-29T11:36:28.419Z,82.61
2023-01-29T11:37:27.014Z,82.92
2023-01-29T11:38:27.288Z,83.13
2023-01-29T11:39:26.955Z,83.03
2023-01-29T11:40:26.419Z,82.78
2023-01-29T11:41:26.631Z,82.15
2023-01-29T11:42:26.369Z,82.26
2023-01-29T11:43:26.359Z,82.15
2023-01-29T11:44:27.200Z,82.09
2023-01-29T11:45:26.381Z,81.98
2023-01-29T11:46:26.351Z,82.30
2023-01-29T11:47:26.390Z,82.51
2023-01-29T11:48:26.469Z,82.09
2023-01-29T11:49:26.398Z,82.51
2023-01-29T11:50:26.612Z,82.61
2023-01-29T11:51:26.495Z,82.61
2023-01-29T11:52:26.626Z,82.71
2023-01-29T11:53:26.714Z,82.40
2023-01-29T11:54:26.636Z,82.71
2023-01-29T11:55:26.318Z,82.92
2023-01-29T11:56:26.646Z,82.82
2023-01-29T11:57:26.866Z,82.40
2023-01-29T11:58:26.956Z,82.40
2023-01-29T11:59:26.345Z,82.68
2023-01-29T12:00:26.275Z,82.36
2023-01-29T12:01:26.275Z,82.36
2023-01-29T12:02:26.284Z,82.15
2023-01-29T12:03:26.320Z,82.05
2023-01-29T12:04:26.310Z,81.98
2023-01-29T12:05:26.314Z,82.36
2023-01-29T12:06:26.323Z,81.95
2023-01-29T12:07:26.943Z,81.95
2023-01-29T12:08:26.201Z,82.05
2023-01-29T12:09:26.225Z,81.95
2023-01-29T12:10:26.221Z,82.26
2023-01-29T12:11:26.223Z,81.12
2023-01-29T12:12:26.175Z,81.43
2023-01-29T12:13:26.177Z,81.81
2023-01-29T12:14:26.173Z,81.49
2023-01-29T12:15:26.272Z,81.60
2023-01-29T12:16:26.213Z,81.70
2023-01-29T12:17:26.307Z,81.60
2023-01-29T12:18:26.309Z,81.60
2023-01-29T12:19:26.323Z,82.12
2023-01-29T12:20:26.341Z,81.91
2023-01-29T12:21:26.360Z,81.74
2023-01-29T12:22:26.109Z,81.84
2023-01-29T12:23:26.110Z,82.15
2023-01-29T12:24:26.123Z,82.57
2023-01-29T12:25:26.241Z,82.68
2023-01-29T12:26:26.264Z,82.78
2023-01-29T12:27:26.275Z,82.89
2023-01-29T12:28:26.332Z,82.89
2023-01-29T12:29:26.059Z,82.78
2023-01-29T12:30:26.554Z,82.36
2023-01-29T12:31:26.224Z,82.26
2023-01-29T12:32:26.511Z,82.68
2023-01-29T12:33:26.498Z,82.26
2023-01-29T12:34:26.505Z,81.95
2023-01-29T12:35:26.530Z,81.84
2023-01-29T12:36:26.542Z,81.84
2023-01-29T12:37:26.017Z,82.05
2023-01-29T12:38:26.004Z,82.26
2023-01-29T12:39:25.995Z,82.26
2023-01-29T12:40:26.144Z,82.68
2023-01-29T12:41:26.030Z,81.84
2023-01-29T12:42:26.055Z,82.01
2023-01-29T12:43:26.030Z,81.95
2023-01-29T12:44:26.033Z,81.74
2023-01-29T12:45:26.041Z,82.15
2023-01-29T12:46:26.084Z,81.84
2023-01-29T12:47:26.066Z,81.95
2023-01-29T12:48:25.995Z,82.01
2023-01-29T12:49:25.992Z,81.81
2023-01-29T12:50:26.013Z,81.70
2023-01-29T12:51:26.212Z,81.63
2023-01-29T12:52:25.901Z,82.15